Aviation Digital Data Service (ADDS)

Output produced by METARs form (2138 UTC 22 October 2014)
found at http://www.aviationweather.gov/adds/metars/
 
KMIV 222054Z AUTO 34015G20KT 10SM -RA OVC017 12/11 A2980 RMK AO2 SLP091 6//// T01220106 55004 PNO $
KMIV 222104Z 2221/2318 34014G20KT 6SM -RA SCT015 OVC025 
     TEMPO 2221/2301 4SM -RA BR OVC015 
     FM230100 33012G20KT P6SM -SHRA BKN015 OVC025 
     FM231400 32012G20KT P6SM BKN025 OVC035